createdAt,value
2018-07-24T00:01:03.655Z,14.60
2018-07-24T00:03:34.098Z,14.60
2018-07-24T00:06:04.440Z,14.50
2018-07-24T00:08:35.399Z,14.90
2018-07-24T00:11:05.794Z,15.27
2018-07-24T00:13:36.186Z,14.80
2018-07-24T00:16:06.517Z,13.80
2018-07-24T00:18:36.387Z,14.07
2018-07-24T00:21:07.059Z,14.50
2018-07-24T00:23:37.415Z,14.07
2018-07-24T00:26:07.926Z,13.10
2018-07-24T00:28:38.361Z,16.00
2018-07-24T00:31:09.227Z,15.00
2018-07-24T00:33:39.689Z,15.30
2018-07-24T00:36:10.256Z,16.00
2018-07-24T00:38:40.626Z,16.20
2018-07-24T00:41:11.070Z,15.70
2018-07-24T00:43:41.495Z,14.60
2018-07-24T00:46:12.168Z,16.93
2018-07-24T00:48:42.879Z,14.67
2018-07-24T00:51:13.390Z,15.93
2018-07-24T00:53:43.980Z,15.27
2018-07-24T00:56:14.240Z,15.40
2018-07-24T00:58:44.848Z,14.63
2018-07-24T01:01:15.317Z,15.27
2018-07-24T01:03:45.796Z,15.80
2018-07-24T01:06:16.251Z,14.17
2018-07-24T01:08:46.599Z,15.10
2018-07-24T01:11:17.167Z,16.07
2018-07-24T01:13:47.663Z,15.20
2018-07-24T01:16:18.174Z,15.67
2018-07-24T01:18:48.559Z,17.20
2018-07-24T01:21:19.018Z,16.07
2018-07-24T01:23:49.514Z,16.77
2018-07-24T01:26:20.133Z,16.70
2018-07-24T01:28:50.669Z,17.87
2018-07-24T01:31:21.046Z,15.50
2018-07-24T01:33:51.502Z,16.63
2018-07-24T01:36:21.894Z,16.77
2018-07-24T01:38:52.463Z,17.37
2018-07-24T01:41:22.958Z,18.53
2018-07-24T01:43:53.519Z,18.27
2018-07-24T01:46:23.887Z,17.80
2018-07-24T01:48:54.402Z,17.83
2018-07-24T01:51:25.005Z,17.50
2018-07-24T01:53:55.357Z,18.20
2018-07-24T01:56:25.764Z,18.10
2018-07-24T01:58:56.109Z,18.47
2018-07-24T02:01:26.691Z,18.53
2018-07-24T02:03:57.337Z,17.80
2018-07-24T02:06:27.390Z,17.47
2018-07-24T02:08:57.823Z,19.17
2018-07-24T02:11:28.278Z,18.63
2018-07-24T02:13:58.844Z,19.30
2018-07-24T02:16:29.078Z,18.37
2018-07-24T02:18:59.091Z,17.83
2018-07-24T02:21:29.052Z,17.97
2018-07-24T02:23:59.640Z,18.60
2018-07-24T02:26:29.946Z,16.33
2018-07-24T02:29:00.322Z,18.37
2018-07-24T02:31:30.775Z,21.23
2018-07-24T02:34:01.331Z,16.83
2018-07-24T02:36:31.844Z,17.53
2018-07-24T02:39:02.455Z,16.50
2018-07-24T02:41:32.773Z,17.53
2018-07-24T02:44:03.359Z,17.30
2018-07-24T02:46:33.781Z,17.40
2018-07-24T02:49:05.076Z,17.07
2018-07-24T02:51:35.347Z,16.97
2018-07-24T02:54:05.893Z,18.60
2018-07-24T02:56:36.152Z,19.53
2018-07-24T02:59:06.892Z,18.17
2018-07-24T03:01:37.234Z,18.33
2018-07-24T03:04:07.792Z,17.70
2018-07-24T03:06:37.991Z,18.37
2018-07-24T03:09:10.947Z,19.33
2018-07-24T03:11:41.405Z,18.07
2018-07-24T03:14:11.767Z,17.47
2018-07-24T03:16:41.726Z,17.03
2018-07-24T03:19:11.753Z,17.80
2018-07-24T03:21:41.785Z,17.60
2018-07-24T03:24:11.860Z,18.10
2018-07-24T03:26:41.819Z,20.63
2018-07-24T03:29:11.871Z,18.47
2018-07-24T03:31:41.839Z,17.87
2018-07-24T03:34:11.838Z,18.93
2018-07-24T03:36:42.178Z,18.63
2018-07-24T03:39:13.532Z,19.03
2018-07-24T03:41:43.529Z,18.77
2018-07-24T03:44:13.527Z,16.87
2018-07-24T03:46:43.597Z,17.97
2018-07-24T03:49:13.652Z,17.83
2018-07-24T03:51:43.650Z,19.17
2018-07-24T03:54:13.737Z,19.17
2018-07-24T03:56:43.839Z,20.70
2018-07-24T03:59:13.846Z,19.57
2018-07-24T04:01:43.897Z,18.60
2018-07-24T04:04:13.884Z,20.40
2018-07-24T04:06:50.652Z,18.77
2018-07-24T04:09:20.677Z,18.57
2018-07-24T04:11:50.690Z,17.20
2018-07-24T04:14:20.737Z,17.77
2018-07-24T04:16:50.849Z,18.70
2018-07-24T04:19:21.419Z,18.03
2018-07-24T04:21:51.697Z,19.37
2018-07-24T04:24:22.154Z,18.43
2018-07-24T04:26:52.579Z,18.83
2018-07-24T04:29:23.547Z,17.97
2018-07-24T04:31:54.039Z,19.23
2018-07-24T04:34:24.503Z,19.63
2018-07-24T04:36:55.631Z,19.90
2018-07-24T04:39:26.009Z,18.97
2018-07-24T04:41:56.050Z,19.63
2018-07-24T04:44:26.539Z,20.20
2018-07-24T04:46:56.921Z,19.47
2018-07-24T04:49:27.424Z,19.10
2018-07-24T04:51:57.794Z,17.60
2018-07-24T04:54:27.865Z,18.10
2018-07-24T04:56:57.863Z,17.40
2018-07-24T04:59:28.017Z,17.40
2018-07-24T05:01:57.996Z,18.50
2018-07-24T05:04:28.142Z,19.50
2018-07-24T05:06:58.216Z,19.60
2018-07-24T05:09:28.286Z,19.60
2018-07-24T05:11:58.279Z,19.17
2018-07-24T05:14:28.385Z,19.23
2018-07-24T05:16:58.948Z,19.77
2018-07-24T05:19:29.423Z,19.53
2018-07-24T05:21:59.421Z,18.67
2018-07-24T05:24:30.106Z,19.90
2018-07-24T05:27:00.841Z,19.90
2018-07-24T05:29:30.910Z,18.47
2018-07-24T05:32:00.979Z,19.23
2018-07-24T05:34:31.052Z,18.00
2018-07-24T05:37:01.179Z,19.77
2018-07-24T05:39:31.206Z,19.87
2018-07-24T05:42:01.220Z,18.57
2018-07-24T05:44:31.303Z,18.83
2018-07-24T05:47:01.305Z,18.73
2018-07-24T05:49:31.276Z,19.23
2018-07-24T05:52:01.219Z,18.20
2018-07-24T05:54:31.275Z,19.30
2018-07-24T05:57:01.283Z,18.63
2018-07-24T05:59:32.098Z,18.50
2018-07-24T06:02:02.164Z,17.97
2018-07-24T06:04:32.109Z,19.17
2018-07-24T06:07:02.117Z,18.10
2018-07-24T06:09:32.736Z,17.67
2018-07-24T06:12:02.982Z,17.90
2018-07-24T06:14:33.456Z,17.50
2018-07-24T06:17:10.573Z,16.80
2018-07-24T06:19:40.578Z,17.27
2018-07-24T06:22:10.579Z,16.63
2018-07-24T06:24:40.642Z,15.90
2018-07-24T06:27:11.180Z,16.37
2018-07-24T06:29:41.261Z,16.33
2018-07-24T06:32:11.852Z,18.53
2018-07-24T06:34:41.870Z,15.40
2018-07-24T06:37:11.846Z,16.10
2018-07-24T06:39:41.975Z,16.47
2018-07-24T06:42:12.318Z,17.80
2018-07-24T06:44:42.432Z,14.67
2018-07-24T06:47:12.523Z,15.03
2018-07-24T06:49:42.537Z,15.40
2018-07-24T06:52:12.571Z,15.47
2018-07-24T06:54:42.563Z,15.40
2018-07-24T06:57:12.549Z,16.27
2018-07-24T06:59:42.535Z,14.90
2018-07-24T07:02:12.547Z,14.47
2018-07-24T07:04:42.616Z,14.33
2018-07-24T07:07:13.065Z,13.63
2018-07-24T07:09:43.079Z,12.90
2018-07-24T07:12:13.404Z,14.00
2018-07-24T07:14:43.407Z,13.87
2018-07-24T07:17:13.695Z,12.60
2018-07-24T07:19:44.017Z,12.57
2018-07-24T07:22:15.385Z,12.90
2018-07-24T07:24:45.727Z,13.43
2018-07-24T07:27:16.384Z,12.43
2018-07-24T07:29:46.804Z,12.70
2018-07-24T07:32:17.363Z,11.63
2018-07-24T07:34:47.739Z,13.27
2018-07-24T07:37:17.673Z,11.70
2018-07-24T07:39:48.079Z,11.83
2018-07-24T07:42:18.641Z,11.70
2018-07-24T07:44:48.905Z,11.67
2018-07-24T07:47:19.310Z,12.10
2018-07-24T07:49:49.880Z,11.63
2018-07-24T07:52:20.336Z,11.10
2018-07-24T07:54:50.860Z,11.80
2018-07-24T07:57:21.457Z,11.13
2018-07-24T07:59:51.889Z,11.87
2018-07-24T08:02:22.383Z,11.60
2018-07-24T08:04:52.660Z,11.17
2018-07-24T08:07:23.337Z,12.40
2018-07-24T08:09:53.874Z,11.47
2018-07-24T08:12:24.362Z,12.30
2018-07-24T08:14:54.902Z,11.73
2018-07-24T08:17:25.303Z,12.40
2018-07-24T08:19:55.556Z,10.47
2018-07-24T08:22:26.139Z,10.53
2018-07-24T08:24:56.395Z,10.50
2018-07-24T08:27:26.727Z,11.23
2018-07-24T08:29:57.095Z,10.43
2018-07-24T08:32:27.596Z,10.20
2018-07-24T08:34:58.118Z,9.70
2018-07-24T08:37:28.258Z,9.47
2018-07-24T08:39:58.747Z,9.97
2018-07-24T08:42:29.165Z,8.97
2018-07-24T08:44:59.694Z,9.00
2018-07-24T08:47:29.757Z,8.60
2018-07-24T08:50:00.285Z,9.40
2018-07-24T08:52:30.781Z,9.67
2018-07-24T08:55:01.537Z,10.00
2018-07-24T08:57:32.411Z,8.63
2018-07-24T09:00:02.855Z,9.03
2018-07-24T09:02:33.558Z,8.70
2018-07-24T09:05:03.808Z,8.80
2018-07-24T09:07:34.167Z,9.43
2018-07-24T09:10:05.826Z,7.87
2018-07-24T09:12:42.904Z,8.30
2018-07-24T09:15:13.336Z,9.33
2018-07-24T09:17:43.739Z,9.27
2018-07-24T09:20:14.322Z,8.37
2018-07-24T09:22:44.899Z,8.63
2018-07-24T09:25:14.961Z,8.57
2018-07-24T09:27:45.411Z,8.90
2018-07-24T09:30:15.897Z,8.13
2018-07-24T09:32:46.394Z,8.87
2018-07-24T09:35:16.711Z,8.23
2018-07-24T09:37:47.238Z,8.83
2018-07-24T09:40:17.678Z,8.80
2018-07-24T09:42:48.064Z,9.07
2018-07-24T09:45:18.643Z,8.50
2018-07-24T09:47:48.920Z,8.27
2018-07-24T09:50:19.357Z,8.93
2018-07-24T09:52:49.629Z,8.83
2018-07-24T09:55:19.953Z,8.20
2018-07-24T09:57:50.477Z,8.47
2018-07-24T10:00:25.902Z,8.47
2018-07-24T10:02:56.405Z,8.90
2018-07-24T10:05:26.847Z,8.57
2018-07-24T10:07:57.416Z,8.50
2018-07-24T10:10:28.012Z,7.47
2018-07-24T10:12:58.578Z,8.07
2018-07-24T10:15:28.730Z,8.30
2018-07-24T10:17:59.267Z,7.10
2018-07-24T10:20:29.787Z,7.73
2018-07-24T10:23:00.478Z,7.60
2018-07-24T10:25:31.012Z,7.10
2018-07-24T10:28:01.477Z,7.80
2018-07-24T10:30:31.972Z,7.50
2018-07-24T10:33:02.400Z,7.33
2018-07-24T10:35:33.035Z,7.83
2018-07-24T10:38:03.247Z,7.27
2018-07-24T10:40:33.652Z,7.67
2018-07-24T10:43:04.350Z,7.60
2018-07-24T10:45:34.724Z,7.77
2018-07-24T10:48:04.940Z,7.53
2018-07-24T10:50:35.444Z,8.77
2018-07-24T10:53:05.792Z,6.93
2018-07-24T10:55:36.354Z,8.17
2018-07-24T10:58:06.864Z,7.40
2018-07-24T11:00:36.776Z,6.50
2018-07-24T11:03:07.420Z,6.70
2018-07-24T11:05:37.977Z,7.33
2018-07-24T11:08:08.555Z,7.33
2018-07-24T11:10:38.861Z,7.13
2018-07-24T11:13:09.345Z,7.57
2018-07-24T11:15:39.878Z,7.43
2018-07-24T11:18:10.350Z,7.00
2018-07-24T11:20:40.438Z,7.87
2018-07-24T11:23:11.049Z,8.30
2018-07-24T11:25:41.937Z,8.23
2018-07-24T11:28:12.446Z,7.83
2018-07-24T11:30:42.894Z,7.57
2018-07-24T11:33:13.724Z,8.27
2018-07-24T11:35:44.026Z,8.03
2018-07-24T11:38:14.496Z,7.83
2018-07-24T11:40:44.964Z,8.27
2018-07-24T11:43:15.136Z,8.17
2018-07-24T11:45:45.515Z,8.20
2018-07-24T11:48:15.978Z,8.40
2018-07-24T11:50:46.460Z,7.93
2018-07-24T11:53:16.836Z,7.57
2018-07-24T11:55:46.722Z,8.03
2018-07-24T11:58:17.289Z,7.93
2018-07-24T12:00:47.975Z,8.17
2018-07-24T12:03:18.407Z,7.97
2018-07-24T12:05:48.802Z,7.00
2018-07-24T12:08:19.302Z,7.17
2018-07-24T12:10:49.879Z,7.87
2018-07-24T12:13:20.363Z,7.30
2018-07-24T12:15:51.031Z,7.70
2018-07-24T12:18:21.405Z,7.97
2018-07-24T12:20:52.105Z,7.10
2018-07-24T12:23:22.477Z,8.20
2018-07-24T12:25:52.868Z,8.60
2018-07-24T12:28:23.355Z,7.93
2018-07-24T12:30:53.632Z,8.10
2018-07-24T12:33:23.883Z,7.20
2018-07-24T12:35:54.418Z,7.20
2018-07-24T12:38:24.832Z,7.50
2018-07-24T12:40:55.163Z,7.30
2018-07-24T12:43:25.429Z,8.17
2018-07-24T12:45:55.831Z,7.77
2018-07-24T12:48:26.196Z,6.87
2018-07-24T12:50:56.585Z,7.40
2018-07-24T12:53:27.107Z,7.70
2018-07-24T12:55:57.320Z,6.80
2018-07-24T12:58:27.623Z,7.27
2018-07-24T13:00:58.096Z,9.03
2018-07-24T13:03:28.610Z,7.83
2018-07-24T13:05:59.256Z,7.80
2018-07-24T13:08:29.470Z,8.10
2018-07-24T13:10:59.877Z,8.10
2018-07-24T13:13:30.435Z,7.63
2018-07-24T13:16:00.970Z,6.90
2018-07-24T13:18:31.462Z,6.70
2018-07-24T13:21:01.853Z,7.10
2018-07-24T13:23:32.174Z,7.03
2018-07-24T13:26:02.690Z,7.30
2018-07-24T13:28:33.258Z,7.10
2018-07-24T13:31:03.482Z,7.30
2018-07-24T13:33:33.900Z,8.17
2018-07-24T13:36:04.318Z,6.83
2018-07-24T13:38:34.534Z,7.50
2018-07-24T13:41:04.811Z,7.87
2018-07-24T13:43:35.118Z,7.73
2018-07-24T13:46:05.604Z,7.93
2018-07-24T13:48:35.832Z,8.60
2018-07-24T13:51:06.137Z,8.27
2018-07-24T13:53:36.402Z,10.27
2018-07-24T13:56:07.039Z,8.90
2018-07-24T13:58:37.243Z,7.37
2018-07-24T14:01:07.736Z,7.70
2018-07-24T14:03:38.270Z,9.23
2018-07-24T14:06:08.890Z,10.10
2018-07-24T14:08:39.366Z,8.60
2018-07-24T14:11:09.640Z,8.77
2018-07-24T14:13:40.031Z,8.47
2018-07-24T14:16:10.482Z,7.30
2018-07-24T14:18:40.872Z,7.70
2018-07-24T14:21:11.401Z,7.70
2018-07-24T14:23:41.665Z,8.10
2018-07-24T14:26:12.095Z,7.93
2018-07-24T14:28:41.994Z,7.60
2018-07-24T14:31:12.306Z,7.97
2018-07-24T14:33:42.733Z,7.83
2018-07-24T14:36:13.088Z,8.77
2018-07-24T14:38:43.676Z,7.93
2018-07-24T14:41:14.156Z,7.30
2018-07-24T14:43:44.307Z,8.10
2018-07-24T14:46:14.783Z,8.50
2018-07-24T14:48:45.189Z,8.60
2018-07-24T14:51:15.754Z,8.10
2018-07-24T14:53:46.755Z,8.10
2018-07-24T14:56:17.317Z,8.60
2018-07-24T14:58:47.926Z,8.17
2018-07-24T15:01:18.159Z,7.20
2018-07-24T15:03:48.478Z,7.73
2018-07-24T15:06:18.904Z,7.30
2018-07-24T15:08:49.390Z,7.33
2018-07-24T15:11:20.116Z,8.33
2018-07-24T15:13:50.795Z,8.00
2018-07-24T15:16:21.257Z,7.70
2018-07-24T15:18:51.636Z,8.10
2018-07-24T15:21:22.021Z,7.27
2018-07-24T15:23:52.387Z,7.30
2018-07-24T15:26:23.060Z,8.33
2018-07-24T15:28:53.631Z,7.93
2018-07-24T15:31:24.232Z,7.70
2018-07-24T15:33:54.493Z,7.90
2018-07-24T15:36:24.839Z,8.13
2018-07-24T15:38:55.346Z,8.67
2018-07-24T15:41:25.848Z,8.20
2018-07-24T15:43:56.353Z,7.83
2018-07-24T15:46:26.696Z,8.60
2018-07-24T15:48:56.997Z,8.10
2018-07-24T15:51:27.060Z,9.10
2018-07-24T15:53:57.308Z,8.87
2018-07-24T15:56:28.469Z,7.60
2018-07-24T15:58:58.453Z,8.10
2018-07-24T16:01:29.018Z,8.63
2018-07-24T16:03:59.427Z,8.80
2018-07-24T16:06:30.095Z,9.13
2018-07-24T16:09:00.129Z,9.87
2018-07-24T16:11:30.437Z,8.67
2018-07-24T16:14:00.540Z,9.40
2018-07-24T16:16:30.674Z,8.87
2018-07-24T16:19:00.671Z,8.30
2018-07-24T16:21:30.714Z,8.83
2018-07-24T16:24:06.313Z,8.30
2018-07-24T16:26:36.418Z,7.57
2018-07-24T16:29:06.486Z,8.80
2018-07-24T16:31:36.561Z,8.73
2018-07-24T16:34:07.051Z,8.90
2018-07-24T16:36:37.403Z,9.53
2018-07-24T16:39:10.928Z,8.90
2018-07-24T16:41:41.569Z,8.10
2018-07-24T16:44:11.531Z,8.87
2018-07-24T16:46:41.633Z,8.03
2018-07-24T16:49:11.741Z,9.60
2018-07-24T16:51:41.799Z,7.93
2018-07-24T16:54:12.184Z,7.73
2018-07-24T16:56:42.279Z,8.10
2018-07-24T16:59:12.818Z,8.47
2018-07-24T17:01:42.905Z,8.53
2018-07-24T17:04:12.951Z,7.60
2018-07-24T17:06:43.063Z,8.43
2018-07-24T17:09:16.022Z,7.97
2018-07-24T17:11:46.066Z,8.95
2018-07-24T17:14:16.132Z,9.50
2018-07-24T17:16:46.175Z,7.60
2018-07-24T17:19:16.163Z,17.03
2018-07-24T17:21:46.216Z,9.10
2018-07-24T17:24:16.808Z,11.07
2018-07-24T17:26:47.440Z,12.40
2018-07-24T17:29:18.087Z,11.77
2018-07-24T17:31:48.391Z,10.90
2018-07-24T17:34:18.829Z,11.90
2018-07-24T17:36:49.077Z,21.20
2018-07-24T17:39:19.587Z,17.20
2018-07-24T17:41:49.765Z,15.20
2018-07-24T17:44:20.070Z,10.27
2018-07-24T17:46:50.118Z,14.20
2018-07-24T17:49:20.184Z,10.75
2018-07-24T17:51:50.718Z,9.93
2018-07-24T17:54:21.310Z,11.03
2018-07-24T17:56:51.904Z,10.50
2018-07-24T17:59:23.200Z,9.63
2018-07-24T18:01:53.651Z,10.30
2018-07-24T18:04:23.700Z,10.23
2018-07-24T18:06:54.133Z,9.40
2018-07-24T18:09:24.623Z,11.20
2018-07-24T18:11:54.717Z,10.23
2018-07-24T18:14:25.092Z,10.70
2018-07-24T18:16:55.456Z,10.47
2018-07-24T18:19:25.973Z,10.20
2018-07-24T18:21:56.525Z,10.30
2018-07-24T18:24:27.120Z,9.83
2018-07-24T18:26:57.631Z,9.80
2018-07-24T18:29:27.661Z,9.37
2018-07-24T18:31:57.705Z,10.50
2018-07-24T18:34:27.769Z,11.77
2018-07-24T18:36:57.760Z,9.57
2018-07-24T18:39:28.425Z,10.90
2018-07-24T18:41:58.723Z,10.17
2018-07-24T18:44:29.244Z,9.33
2018-07-24T18:46:59.561Z,9.60
2018-07-24T18:49:29.608Z,9.60
2018-07-24T18:51:59.828Z,10.97
2018-07-24T18:54:30.882Z,9.90
2018-07-24T18:57:00.904Z,10.77
2018-07-24T18:59:30.944Z,9.90
2018-07-24T19:02:01.081Z,10.97
2018-07-24T19:04:31.173Z,10.10
2018-07-24T19:07:01.261Z,11.70
2018-07-24T19:09:31.310Z,10.60
2018-07-24T19:12:01.306Z,11.50
2018-07-24T19:14:31.355Z,11.37
2018-07-24T19:17:01.706Z,13.03
2018-07-24T19:19:32.051Z,12.50
2018-07-24T19:22:02.139Z,15.50
2018-07-24T19:24:32.281Z,98.13
2018-07-24T19:27:02.474Z,55.07
2018-07-24T19:29:32.832Z,14.30
2018-07-24T19:32:03.063Z,10.53
2018-07-24T19:34:33.671Z,11.90
2018-07-24T19:37:03.627Z,14.13
2018-07-24T19:39:34.060Z,17.40
2018-07-24T19:42:04.461Z,15.57
2018-07-24T19:44:34.491Z,11.80
2018-07-24T19:47:04.976Z,11.63
2018-07-24T19:49:35.514Z,10.17
2018-07-24T19:52:05.921Z,11.23
2018-07-24T19:54:36.611Z,11.60
2018-07-24T19:57:07.194Z,13.57
2018-07-24T19:59:37.746Z,10.53
2018-07-24T20:02:08.135Z,10.63
2018-07-24T20:04:39.224Z,10.97
2018-07-24T20:07:09.688Z,11.30
2018-07-24T20:09:40.168Z,10.43
2018-07-24T20:12:10.589Z,10.73
2018-07-24T20:14:41.241Z,10.70
2018-07-24T20:17:11.869Z,11.03
2018-07-24T20:19:42.220Z,16.30
2018-07-24T20:22:12.721Z,15.77
2018-07-24T20:24:43.258Z,14.73
2018-07-24T20:27:14.297Z,12.07
2018-07-24T20:29:44.807Z,11.80
2018-07-24T20:32:15.212Z,16.10
2018-07-24T20:34:45.647Z,12.10
2018-07-24T20:37:15.794Z,11.30
2018-07-24T20:39:46.099Z,11.20
2018-07-24T20:42:16.729Z,11.20
2018-07-24T20:44:47.185Z,12.13
2018-07-24T20:47:17.799Z,11.20
2018-07-24T20:49:48.076Z,12.13
2018-07-24T20:52:19.147Z,13.03
2018-07-24T20:54:49.528Z,13.10
2018-07-24T20:57:20.017Z,15.83
2018-07-24T20:59:50.504Z,16.97
2018-07-24T21:02:20.947Z,16.63
2018-07-24T21:04:51.460Z,11.40
2018-07-24T21:07:22.145Z,11.70
2018-07-24T21:09:53.063Z,11.27
2018-07-24T21:12:23.592Z,14.10
2018-07-24T21:14:54.180Z,12.67
2018-07-24T21:17:24.772Z,11.47
2018-07-24T21:19:55.117Z,11.60
2018-07-24T21:22:25.519Z,11.07
2018-07-24T21:24:56.056Z,12.07
2018-07-24T21:27:26.472Z,13.37
2018-07-24T21:29:57.161Z,12.00
2018-07-24T21:32:27.668Z,11.80
2018-07-24T21:34:57.993Z,10.90
2018-07-24T21:37:28.515Z,11.60
2018-07-24T21:39:59.049Z,10.80
2018-07-24T21:42:29.680Z,10.53
2018-07-24T21:45:00.178Z,13.03
2018-07-24T21:47:30.489Z,11.10
2018-07-24T21:50:01.008Z,12.10
2018-07-24T21:52:31.572Z,11.67
2018-07-24T21:55:02.138Z,11.70
2018-07-24T21:57:32.580Z,11.33
2018-07-24T22:00:02.912Z,10.67
2018-07-24T22:02:33.400Z,11.23
2018-07-24T22:05:03.697Z,10.70
2018-07-24T22:07:35.206Z,11.53
2018-07-24T22:10:09.611Z,11.30
2018-07-24T22:12:40.085Z,10.30
2018-07-24T22:15:15.499Z,11.30
2018-07-24T22:17:46.070Z,11.40
2018-07-24T22:20:16.246Z,11.00
2018-07-24T22:22:46.711Z,10.40
2018-07-24T22:25:17.516Z,10.03
2018-07-24T22:27:47.944Z,11.13
2018-07-24T22:30:18.515Z,10.90
2018-07-24T22:32:48.820Z,11.10
2018-07-24T22:35:19.179Z,10.67
2018-07-24T22:37:49.856Z,10.27
2018-07-24T22:40:20.285Z,11.03
2018-07-24T22:42:50.917Z,11.10
2018-07-24T22:45:22.399Z,11.37
2018-07-24T22:47:52.293Z,10.33
2018-07-24T22:50:22.705Z,11.00
2018-07-24T22:52:53.073Z,10.40
2018-07-24T22:55:23.611Z,10.00
2018-07-24T22:57:54.788Z,11.27
2018-07-24T23:00:25.258Z,11.17
2018-07-24T23:02:55.903Z,10.60
2018-07-24T23:05:25.963Z,11.00
2018-07-24T23:07:56.285Z,10.90
2018-07-24T23:10:31.911Z,11.60
2018-07-24T23:13:04.193Z,11.30
2018-07-24T23:15:34.616Z,10.70
2018-07-24T23:18:05.131Z,11.50
2018-07-24T23:20:35.459Z,10.40
2018-07-24T23:23:05.622Z,10.80
2018-07-24T23:25:36.063Z,10.50
2018-07-24T23:28:06.923Z,9.93
2018-07-24T23:30:37.015Z,11.33
2018-07-24T23:33:07.315Z,10.67
2018-07-24T23:35:37.758Z,10.90
2018-07-24T23:38:08.512Z,10.83
2018-07-24T23:40:38.931Z,10.50
2018-07-24T23:43:09.513Z,11.60
2018-07-24T23:45:40.688Z,10.77
2018-07-24T23:48:11.281Z,11.77
2018-07-24T23:50:41.781Z,11.17
2018-07-24T23:53:12.439Z,11.87
2018-07-24T23:55:42.710Z,11.23
2018-07-24T23:58:13.214Z,11.57
